createdAt,value
2024-05-09T00:00:55.285Z,14.85
2024-05-09T00:03:26.158Z,17.27
2024-05-09T00:05:57.084Z,12.90
2024-05-09T00:08:28.308Z,18.33
2024-05-09T00:10:59.306Z,17.13
2024-05-09T00:13:32.952Z,14.65
2024-05-09T00:16:03.833Z,14.52
2024-05-09T00:18:34.769Z,13.30
2024-05-09T00:21:08.359Z,17.67
2024-05-09T00:23:39.348Z,15.68
2024-05-09T00:26:10.238Z,11.80
2024-05-09T00:28:43.696Z,13.02
2024-05-09T00:31:14.559Z,14.13
2024-05-09T00:33:45.480Z,14.93
2024-05-09T00:36:16.414Z,14.07
2024-05-09T00:38:47.613Z,13.10
2024-05-09T00:41:19.873Z,16.75
2024-05-09T00:43:53.630Z,14.63
2024-05-09T00:46:24.630Z,15.48
2024-05-09T00:48:55.669Z,16.33
2024-05-09T00:51:26.624Z,13.68
2024-05-09T00:53:57.969Z,13.75
2024-05-09T00:56:29.401Z,15.25
2024-05-09T00:59:03.806Z,16.63
2024-05-09T01:01:34.928Z,20.77
2024-05-09T01:04:05.927Z,17.65
2024-05-09T01:06:36.942Z,24.17
2024-05-09T01:09:07.803Z,19.55
2024-05-09T01:11:40.837Z,13.55
2024-05-09T01:14:14.375Z,19.23
2024-05-09T01:16:45.600Z,24.63
2024-05-09T01:19:26.348Z,15.35
2024-05-09T01:21:57.556Z,23.65
2024-05-09T01:24:30.975Z,16.77
2024-05-09T01:27:01.901Z,16.80
2024-05-09T01:29:32.713Z,14.10
2024-05-09T01:32:04.993Z,16.50
2024-05-09T01:34:35.884Z,13.98
2024-05-09T01:37:07.250Z,16.40
2024-05-09T01:39:40.716Z,15.48
2024-05-09T01:42:11.551Z,14.95
2024-05-09T01:44:43.539Z,13.65
2024-05-09T01:47:14.495Z,16.30
2024-05-09T01:49:45.506Z,17.83
2024-05-09T01:52:16.465Z,13.07
2024-05-09T01:54:49.882Z,14.30
2024-05-09T01:57:20.728Z,13.98
2024-05-09T01:59:51.498Z,19.65
2024-05-09T02:02:22.481Z,15.38
2024-05-09T02:04:53.413Z,19.42
2024-05-09T02:07:24.304Z,13.50
2024-05-09T02:09:57.732Z,15.77
2024-05-09T02:12:28.669Z,11.80
2024-05-09T02:14:59.531Z,13.10
2024-05-09T02:17:30.528Z,14.90
2024-05-09T02:20:01.518Z,15.88
2024-05-09T02:22:32.382Z,13.27
2024-05-09T02:25:05.809Z,16.75
2024-05-09T02:27:36.611Z,26.50
2024-05-09T02:30:18.284Z,14.10
2024-05-09T02:32:53.881Z,14.35
2024-05-09T02:35:24.908Z,14.90
2024-05-09T02:37:53.248Z,12.75
2024-05-09T02:40:35.554Z,14.73
2024-05-09T02:43:11.273Z,14.10
2024-05-09T02:45:40.566Z,11.65
2024-05-09T02:48:14.525Z,14.30
2024-05-09T02:50:44.362Z,13.63
2024-05-09T02:53:16.040Z,14.80
2024-05-09T02:55:46.987Z,10.38
2024-05-09T02:58:18.131Z,13.60
2024-05-09T03:00:46.409Z,13.18
2024-05-09T03:03:17.588Z,14.75
2024-05-09T03:05:46.503Z,13.77
2024-05-09T03:08:17.587Z,17.58
2024-05-09T03:10:48.559Z,14.75
2024-05-09T03:13:19.480Z,17.08
2024-05-09T03:15:47.675Z,17.13
2024-05-09T03:18:18.620Z,16.98
2024-05-09T03:20:46.946Z,20.75
2024-05-09T03:23:17.897Z,17.58
2024-05-09T03:25:48.773Z,22.77
2024-05-09T03:28:19.587Z,17.90
2024-05-09T03:30:47.785Z,17.33
2024-05-09T03:33:20.452Z,20.38
2024-05-09T03:35:49.700Z,17.48
2024-05-09T03:38:20.652Z,14.05
2024-05-09T03:40:54.454Z,17.15
2024-05-09T03:43:25.287Z,17.27
2024-05-09T03:45:56.115Z,13.88
2024-05-09T03:48:24.657Z,13.80
2024-05-09T03:50:55.677Z,17.10
2024-05-09T03:53:25.301Z,18.13
2024-05-09T03:55:59.447Z,12.10
2024-05-09T03:58:27.708Z,15.50
2024-05-09T04:00:58.730Z,18.15
2024-05-09T04:03:27.288Z,15.00
2024-05-09T04:05:59.020Z,16.80
2024-05-09T04:08:27.214Z,14.40
2024-05-09T04:11:00.818Z,11.35
2024-05-09T04:13:29.031Z,13.02
2024-05-09T04:15:59.867Z,13.02
2024-05-09T04:18:28.195Z,12.32
2024-05-09T04:20:59.670Z,12.38
2024-05-09T04:23:28.135Z,12.77
2024-05-09T04:26:04.378Z,16.85
2024-05-09T04:28:32.614Z,10.63
2024-05-09T04:31:03.570Z,11.15
2024-05-09T04:33:31.895Z,14.10
2024-05-09T04:36:03.007Z,12.73
2024-05-09T04:38:31.171Z,13.30
2024-05-09T04:41:04.697Z,13.55
2024-05-09T04:43:35.210Z,13.88
2024-05-09T04:46:06.080Z,16.67
2024-05-09T04:48:34.397Z,16.13
2024-05-09T04:51:05.875Z,14.13
2024-05-09T04:53:34.299Z,16.75
2024-05-09T04:56:09.488Z,14.25
2024-05-09T04:58:37.886Z,12.35
2024-05-09T05:01:08.733Z,13.98
2024-05-09T05:03:37.129Z,14.93
2024-05-09T05:06:08.833Z,14.38
2024-05-09T05:08:37.852Z,16.35
2024-05-09T05:11:11.554Z,14.80
2024-05-09T05:13:41.515Z,14.05
2024-05-09T05:16:12.769Z,15.60
2024-05-09T05:18:41.099Z,13.70
2024-05-09T05:21:12.095Z,9.45
2024-05-09T05:23:41.083Z,10.90
2024-05-09T05:26:20.300Z,10.13
2024-05-09T05:28:48.643Z,10.52
2024-05-09T05:31:19.934Z,8.38
2024-05-09T05:33:49.267Z,10.18
2024-05-09T05:36:20.155Z,7.82
2024-05-09T05:38:48.495Z,10.43
2024-05-09T05:41:22.059Z,9.35
2024-05-09T05:43:50.310Z,9.45
2024-05-09T05:46:21.217Z,9.13
2024-05-09T05:48:49.619Z,9.45
2024-05-09T05:51:20.622Z,9.15
2024-05-09T05:53:48.962Z,8.30
2024-05-09T05:56:22.499Z,10.57
2024-05-09T05:58:51.536Z,8.07
2024-05-09T06:01:22.510Z,8.32
2024-05-09T06:03:50.806Z,8.32
2024-05-09T06:06:21.710Z,7.78
2024-05-09T06:08:49.985Z,7.45
2024-05-09T06:11:23.614Z,6.95
2024-05-09T06:13:51.939Z,8.60
2024-05-09T06:16:23.768Z,6.28
2024-05-09T06:18:52.173Z,7.68
2024-05-09T06:21:23.309Z,8.73
2024-05-09T06:23:51.661Z,8.77
2024-05-09T06:26:25.370Z,6.72
2024-05-09T06:28:53.632Z,10.57
2024-05-09T06:31:24.490Z,7.45
2024-05-09T06:33:52.821Z,9.60
2024-05-09T06:36:23.785Z,7.97
2024-05-09T06:38:52.060Z,6.30
2024-05-09T06:41:25.627Z,8.88
2024-05-09T06:43:53.842Z,7.00
2024-05-09T06:46:25.541Z,5.88
2024-05-09T06:48:54.179Z,6.05
2024-05-09T06:51:25.872Z,6.07
2024-05-09T06:53:55.111Z,4.93
2024-05-09T06:56:28.593Z,5.22
2024-05-09T06:58:56.971Z,6.55
2024-05-09T07:01:27.932Z,5.35
2024-05-09T07:03:56.273Z,8.32
2024-05-09T07:06:27.341Z,6.35
2024-05-09T07:08:55.569Z,5.40
2024-05-09T07:11:29.147Z,5.30
2024-05-09T07:13:57.494Z,5.53
2024-05-09T07:16:28.353Z,4.47
2024-05-09T07:18:56.692Z,4.72
2024-05-09T07:21:27.674Z,5.15
2024-05-09T07:23:55.912Z,4.47
2024-05-09T07:26:29.428Z,3.70
2024-05-09T07:28:57.661Z,6.28
2024-05-09T07:31:30.747Z,3.80
2024-05-09T07:33:59.643Z,5.30
2024-05-09T07:36:30.526Z,9.57
2024-05-09T07:38:58.867Z,3.45
2024-05-09T07:41:32.524Z,4.78
2024-05-09T07:55:02.155Z,2.83
2024-05-09T07:57:32.964Z,6.50
2024-05-09T08:00:04.508Z,4.47
2024-05-09T08:02:33.073Z,3.17
2024-05-09T08:05:03.984Z,4.00
2024-05-09T08:07:34.836Z,5.07
2024-05-09T08:10:08.103Z,3.72
2024-05-09T08:13:55.082Z,3.20
2024-05-09T08:21:01.980Z,4.13
2024-05-09T08:23:30.213Z,3.75
2024-05-09T08:26:00.939Z,4.15
2024-05-09T08:28:29.109Z,4.43
2024-05-09T08:31:02.394Z,2.92
2024-05-09T08:33:33.162Z,3.22
2024-05-09T08:36:07.113Z,4.47
2024-05-09T08:38:35.211Z,4.15
2024-05-09T08:41:07.248Z,3.13
2024-05-09T08:43:39.037Z,3.80
2024-05-09T08:46:13.130Z,2.72
2024-05-09T08:48:44.153Z,11.02
2024-05-09T08:51:19.795Z,4.22
2024-05-09T08:54:07.696Z,5.82
2024-05-09T09:48:47.131Z,2.78
2024-05-09T09:51:16.016Z,3.63
2024-05-09T09:53:50.242Z,5.80
2024-05-09T09:56:20.245Z,3.80
2024-05-09T09:58:51.908Z,6.15
2024-05-09T10:01:21.631Z,3.13
2024-05-09T10:03:56.490Z,7.25
2024-05-09T10:06:25.415Z,3.72
2024-05-09T10:08:57.140Z,3.50
2024-05-09T10:11:29.754Z,5.22
2024-05-09T10:14:00.719Z,5.20
2024-05-09T10:16:31.547Z,12.23
2024-05-09T10:19:05.321Z,3.88
2024-05-09T10:21:33.584Z,4.05
2024-05-09T10:24:07.110Z,5.90
2024-05-09T10:26:37.701Z,3.60
2024-05-09T10:29:16.033Z,3.15
2024-05-09T10:31:46.399Z,4.55
2024-05-09T10:34:25.034Z,10.50
2024-05-09T10:36:55.115Z,3.17
2024-05-09T10:39:28.117Z,56.15
2024-05-09T10:41:56.401Z,4.60
2024-05-09T10:44:27.303Z,2.67
2024-05-09T10:46:56.321Z,2.78
2024-05-09T10:49:29.830Z,2.38
2024-05-09T10:51:57.944Z,3.65
2024-05-09T10:54:38.788Z,5.00
2024-05-09T10:57:07.517Z,5.53
2024-05-09T10:59:39.764Z,3.83
2024-05-09T11:02:08.632Z,3.15
2024-05-09T11:04:44.548Z,2.88
2024-05-09T11:07:14.867Z,4.75
2024-05-09T11:09:46.499Z,1.77
2024-05-09T11:12:14.842Z,2.10
2024-05-09T11:14:56.041Z,3.42
2024-05-09T11:17:24.909Z,4.03
2024-05-09T11:19:58.372Z,3.17
2024-05-09T11:22:32.596Z,3.65
2024-05-09T11:25:04.222Z,3.58
2024-05-09T11:27:32.401Z,4.13
2024-05-09T11:30:04.328Z,2.33
2024-05-09T11:32:33.108Z,2.22
2024-05-09T11:35:07.624Z,3.65
2024-05-09T11:37:39.986Z,5.22
2024-05-09T11:40:21.175Z,2.08
2024-05-09T11:42:54.339Z,3.38
2024-05-09T11:45:25.410Z,3.72
2024-05-09T11:47:53.899Z,3.33
2024-05-09T11:50:33.092Z,2.67
2024-05-09T11:53:04.056Z,2.60
2024-05-09T11:55:36.484Z,2.45
2024-05-09T11:58:05.561Z,3.83
2024-05-09T12:00:37.714Z,2.15
2024-05-09T12:03:06.651Z,2.28
2024-05-09T12:05:40.338Z,2.53
2024-05-09T12:08:08.635Z,2.70
2024-05-09T12:10:39.838Z,2.95
2024-05-09T12:13:08.169Z,3.42
2024-05-09T12:15:39.624Z,6.18
2024-05-09T12:18:08.466Z,2.30
2024-05-09T12:20:42.097Z,3.38
2024-05-09T12:23:10.766Z,3.05
2024-05-09T12:25:42.197Z,4.90
2024-05-09T12:28:10.483Z,9.15
2024-05-09T12:30:41.941Z,3.92
2024-05-09T12:33:12.372Z,4.85
2024-05-09T12:35:49.165Z,4.65
2024-05-09T12:38:18.869Z,2.35
2024-05-09T12:40:49.761Z,2.47
2024-05-09T12:43:18.035Z,5.65
2024-05-09T12:45:48.919Z,4.75
2024-05-09T12:48:17.292Z,2.25
2024-05-09T12:50:51.742Z,3.33
2024-05-09T12:53:19.951Z,2.15
2024-05-09T12:55:56.834Z,2.10
2024-05-09T12:58:28.487Z,6.40
2024-05-09T13:00:59.573Z,3.20
2024-05-09T13:03:28.116Z,3.33
2024-05-09T13:06:01.860Z,4.00
2024-05-09T13:08:30.112Z,2.05
2024-05-09T13:11:01.525Z,3.00
2024-05-09T13:13:29.669Z,1.75
2024-05-09T13:16:00.723Z,3.00
2024-05-09T13:18:29.053Z,2.67
2024-05-09T13:21:02.576Z,5.10
2024-05-09T13:23:30.919Z,1.77
2024-05-09T13:26:01.798Z,3.17
2024-05-09T13:28:32.338Z,2.50
2024-05-09T13:31:04.411Z,3.35
2024-05-09T13:33:33.784Z,2.25
2024-05-09T13:36:08.709Z,3.78
2024-05-09T13:38:36.861Z,1.95
2024-05-09T13:41:08.544Z,2.95
2024-05-09T13:43:36.659Z,2.70
2024-05-09T13:46:07.910Z,4.15
2024-05-09T13:48:36.335Z,2.58
2024-05-09T13:51:09.912Z,2.53
2024-05-09T13:53:37.997Z,4.70
2024-05-09T13:56:09.338Z,3.35
2024-05-09T13:58:37.560Z,2.30
2024-05-09T14:01:08.484Z,3.08
2024-05-09T14:03:36.886Z,1.90
2024-05-09T14:06:12.825Z,2.78
2024-05-09T14:08:41.612Z,1.67
2024-05-09T14:11:12.489Z,2.72
2024-05-09T14:13:40.770Z,2.80
2024-05-09T14:16:11.887Z,2.42
2024-05-09T14:18:41.038Z,2.50
2024-05-09T14:21:14.452Z,2.63
2024-05-09T14:23:42.589Z,2.15
2024-05-09T14:26:14.167Z,2.67
2024-05-09T14:28:42.540Z,2.03
2024-05-09T14:31:15.346Z,2.65
2024-05-09T14:33:44.431Z,3.35
2024-05-09T14:36:21.641Z,3.00
2024-05-09T14:38:59.322Z,2.65
2024-05-09T14:41:30.050Z,2.88
2024-05-09T14:43:58.172Z,1.85
2024-05-09T14:46:29.154Z,1.73
2024-05-09T14:48:59.568Z,3.03
2024-05-09T14:51:35.772Z,2.25
2024-05-09T14:54:04.184Z,3.47
2024-05-09T14:56:34.982Z,3.50
2024-05-09T14:59:03.464Z,2.97
2024-05-09T15:02:12.501Z,3.20
2024-05-09T15:04:41.011Z,1.85
2024-05-09T15:07:14.531Z,2.63
2024-05-09T15:09:43.136Z,2.72
2024-05-09T15:12:13.859Z,2.95
2024-05-09T15:14:42.301Z,5.38
2024-05-09T15:17:13.072Z,3.03
2024-05-09T15:19:41.474Z,1.98
2024-05-09T15:22:16.542Z,2.38
2024-05-09T15:24:45.303Z,2.53
2024-05-09T15:27:16.227Z,2.20
2024-05-09T15:29:45.676Z,1.95
2024-05-09T15:32:17.621Z,2.25
2024-05-09T15:34:46.252Z,2.22
2024-05-09T15:37:19.955Z,2.40
2024-05-09T15:39:48.579Z,3.67
2024-05-09T15:42:19.344Z,3.50
2024-05-09T15:44:52.953Z,2.30
2024-05-09T15:47:23.819Z,2.78
2024-05-09T15:49:52.130Z,2.65
2024-05-09T15:52:25.609Z,6.88
2024-05-09T15:54:54.046Z,5.03
2024-05-09T15:57:25.032Z,4.13
2024-05-09T15:59:53.263Z,3.17
2024-05-09T16:02:24.591Z,4.25
2024-05-09T16:04:53.196Z,1.77
2024-05-09T16:07:26.730Z,3.17
2024-05-09T16:09:54.886Z,2.50
2024-05-09T16:12:25.656Z,2.42
2024-05-09T16:14:53.775Z,3.72
2024-05-09T16:17:24.640Z,2.08
2024-05-09T16:19:53.021Z,1.85
2024-05-09T16:22:26.555Z,2.22
2024-05-09T16:24:54.892Z,2.80
2024-05-09T16:27:25.836Z,3.17
2024-05-09T16:29:55.901Z,3.90
2024-05-09T16:32:27.104Z,3.35
2024-05-09T16:34:55.467Z,2.85
2024-05-09T16:37:29.765Z,1.75
2024-05-09T16:39:58.467Z,3.85
2024-05-09T16:42:29.336Z,2.83
2024-05-09T16:44:57.470Z,2.00
2024-05-09T16:47:28.497Z,3.00
2024-05-09T16:49:56.688Z,2.15
2024-05-09T16:52:30.202Z,3.28
2024-05-09T16:54:58.348Z,2.45
2024-05-09T16:57:29.210Z,3.22
2024-05-09T16:59:57.531Z,5.30
2024-05-09T17:02:28.886Z,2.53
2024-05-09T17:04:57.290Z,2.78
2024-05-09T17:07:30.922Z,1.85
2024-05-09T17:09:59.190Z,2.25
2024-05-09T17:12:30.233Z,4.03
2024-05-09T17:15:01.105Z,4.30
2024-05-09T17:17:29.476Z,2.55
2024-05-09T17:20:00.548Z,3.17
2024-05-09T17:22:32.229Z,4.75
2024-05-09T17:25:03.182Z,2.67
2024-05-09T17:27:31.830Z,2.63
2024-05-09T17:30:03.539Z,2.97
2024-05-09T17:32:32.914Z,1.92
2024-05-09T17:35:03.855Z,2.45
2024-05-09T17:37:35.831Z,3.33
2024-05-09T17:40:14.388Z,3.25
2024-05-09T17:42:47.872Z,3.88
2024-05-09T17:45:16.701Z,2.45
2024-05-09T17:47:47.833Z,2.58
2024-05-09T17:50:23.784Z,2.22
2024-05-09T17:53:01.847Z,2.03
2024-05-09T17:55:30.312Z,2.55
2024-05-09T17:58:01.639Z,4.80
2024-05-09T18:00:37.594Z,2.65
2024-05-09T18:03:13.610Z,2.95
2024-05-09T18:05:43.983Z,3.20
2024-05-09T18:08:18.260Z,4.95
2024-05-09T18:10:46.464Z,3.83
2024-05-09T18:13:17.330Z,3.38
2024-05-09T18:15:45.584Z,3.28
2024-05-09T18:18:17.562Z,3.38
2024-05-09T18:20:46.517Z,3.15
2024-05-09T18:23:20.279Z,2.92
2024-05-09T18:25:48.574Z,4.50
2024-05-09T18:28:19.834Z,9.07
2024-05-09T18:30:48.043Z,4.00
2024-05-09T18:33:19.447Z,3.97
2024-05-09T18:35:48.856Z,5.28
2024-05-09T18:38:25.620Z,9.10
2024-05-09T18:40:53.895Z,3.22
2024-05-09T18:43:31.039Z,3.95
2024-05-09T18:46:04.625Z,3.00
2024-05-09T18:48:35.834Z,4.53
2024-05-09T18:51:05.738Z,4.00
2024-05-09T18:53:39.634Z,3.17
2024-05-09T18:56:08.880Z,10.05
2024-05-09T18:58:41.047Z,6.10
2024-05-09T19:01:09.486Z,4.72
2024-05-09T19:03:40.839Z,6.15
2024-05-09T19:06:09.411Z,4.88
2024-05-09T19:08:42.926Z,6.05
2024-05-09T19:11:11.465Z,6.13
2024-05-09T19:13:42.255Z,11.73
2024-05-09T19:16:10.793Z,9.88
2024-05-09T19:18:41.915Z,8.65
2024-05-09T19:21:10.495Z,8.43
2024-05-09T19:23:50.548Z,6.70
2024-05-09T19:26:20.366Z,9.73
2024-05-09T19:28:51.136Z,6.40
2024-05-09T19:31:19.547Z,14.38
2024-05-09T19:33:50.617Z,8.75
2024-05-09T19:36:19.573Z,10.52
2024-05-09T19:38:53.465Z,7.80
2024-05-09T19:41:22.983Z,3.75
2024-05-09T19:43:54.000Z,4.97
2024-05-09T19:46:23.853Z,4.28
2024-05-09T19:48:57.347Z,5.70
2024-05-09T19:51:25.938Z,7.47
2024-05-09T19:53:59.594Z,3.92
2024-05-09T19:56:27.792Z,3.67
2024-05-09T19:58:58.852Z,4.13
2024-05-09T20:01:27.379Z,4.30
2024-05-09T20:03:59.342Z,4.15
2024-05-09T20:06:29.583Z,5.03
2024-05-09T20:09:04.078Z,6.85
2024-05-09T20:11:33.304Z,6.88
2024-05-09T20:14:04.238Z,4.30
2024-05-09T20:16:32.539Z,5.22
2024-05-09T20:19:09.302Z,4.10
2024-05-09T20:21:42.359Z,5.13
2024-05-09T20:24:16.040Z,4.55
2024-05-09T20:26:44.362Z,3.90
2024-05-09T20:29:15.200Z,6.38
2024-05-09T20:31:43.461Z,5.13
2024-05-09T20:34:15.506Z,8.70
2024-05-09T20:36:44.062Z,7.72
2024-05-09T20:39:17.448Z,4.75
2024-05-09T20:41:45.558Z,4.25
2024-05-09T20:44:17.014Z,6.65
2024-05-09T20:46:45.517Z,6.13
2024-05-09T20:49:17.091Z,6.07
2024-05-09T20:51:45.567Z,7.13
2024-05-09T20:54:19.034Z,5.57
2024-05-09T20:56:47.122Z,6.00
2024-05-09T20:59:18.078Z,6.60
2024-05-09T21:01:49.220Z,5.63
2024-05-09T21:04:20.778Z,5.50
2024-05-09T21:06:49.172Z,5.60
2024-05-09T21:09:25.788Z,6.13
2024-05-09T21:11:54.093Z,5.25
2024-05-09T21:14:25.018Z,4.85
2024-05-09T21:16:53.237Z,4.50
2024-05-09T21:19:24.375Z,6.60
2024-05-09T21:21:53.461Z,6.70
2024-05-09T21:24:27.125Z,5.78
2024-05-09T21:26:55.830Z,4.95
2024-05-09T21:29:26.574Z,6.43
2024-05-09T21:31:54.704Z,7.32
2024-05-09T21:34:25.571Z,5.28
2024-05-09T21:36:53.725Z,7.80
2024-05-09T21:39:28.361Z,5.45
2024-05-09T21:42:01.761Z,4.40
2024-05-09T21:44:32.890Z,5.63
2024-05-09T21:47:01.065Z,4.50
2024-05-09T21:49:31.964Z,4.65
2024-05-09T21:52:00.166Z,5.25
2024-05-09T21:54:33.728Z,7.70
2024-05-09T21:57:02.357Z,5.75
2024-05-09T21:59:33.522Z,7.63
2024-05-09T22:02:02.067Z,6.18
2024-05-09T22:04:33.047Z,5.75
2024-05-09T22:07:01.412Z,5.68
2024-05-09T22:09:35.021Z,5.82
2024-05-09T22:12:04.740Z,6.35
2024-05-09T22:14:35.552Z,6.18
2024-05-09T22:17:04.156Z,5.32
2024-05-09T22:19:35.132Z,5.38
2024-05-09T22:22:03.678Z,7.60
2024-05-09T22:24:37.275Z,8.25
2024-05-09T22:27:06.216Z,8.25
2024-05-09T22:29:37.020Z,5.78
2024-05-09T22:32:05.955Z,5.10
2024-05-09T22:34:36.822Z,5.88
2024-05-09T22:37:05.137Z,8.70
2024-05-09T22:39:38.520Z,11.43
2024-05-09T22:42:06.684Z,5.63
2024-05-09T22:44:37.360Z,7.93
2024-05-09T22:47:05.537Z,6.95
2024-05-09T22:49:36.316Z,5.55
2024-05-09T22:52:05.186Z,7.70
2024-05-09T22:54:38.732Z,6.65
2024-05-09T22:57:06.845Z,6.13
2024-05-09T22:59:37.711Z,5.75
2024-05-09T23:02:06.120Z,6.07
2024-05-09T23:04:37.065Z,5.57
2024-05-09T23:07:05.300Z,6.20
2024-05-09T23:09:38.945Z,6.43
2024-05-09T23:12:07.822Z,5.88
2024-05-09T23:14:38.614Z,10.05
2024-05-09T23:17:06.786Z,9.68
2024-05-09T23:19:37.696Z,10.10
2024-05-09T23:22:06.137Z,8.07
2024-05-09T23:24:41.827Z,8.43
2024-05-09T23:27:09.970Z,8.77
2024-05-09T23:29:40.723Z,11.18
2024-05-09T23:32:11.535Z,7.10
2024-05-09T23:34:39.836Z,7.53
2024-05-09T23:37:10.924Z,7.57
2024-05-09T23:39:41.778Z,7.03
2024-05-09T23:42:12.759Z,9.20
2024-05-09T23:44:41.097Z,9.25
2024-05-09T23:47:11.983Z,6.78
2024-05-09T23:49:40.287Z,6.45
2024-05-09T23:52:11.263Z,8.32
2024-05-09T23:54:42.387Z,8.60
2024-05-09T23:57:13.198Z,10.50
2024-05-09T23:59:41.922Z,6.68
